sensor_id;sensor_type;location;lat;lon;timestamp;P1;durP1;ratioP1;P2;durP2;ratioP2
7529;SDS011;3806;52.270;10.544;2022-08-01T00:00:41;4.20;;;2.60;;
7529;SDS011;3806;52.270;10.544;2022-08-01T00:03:06;3.42;;;2.65;;
7529;SDS011;3806;52.270;10.544;2022-08-01T00:05:32;3.78;;;2.85;;
7529;SDS011;3806;52.270;10.544;2022-08-01T00:07:58;4.47;;;3.20;;
7529;SDS011;3806;52.270;10.544;2022-08-01T00:10:23;5.55;;;3.03;;
7529;SDS011;3806;52.270;10.544;2022-08-01T00:12:49;3.60;;;2.53;;
7529;SDS011;3806;52.270;10.544;2022-08-01T00:15:15;4.95;;;3.08;;
7529;SDS011;3806;52.270;10.544;2022-08-01T00:17:42;5.50;;;2.97;;
7529;SDS011;3806;52.270;10.544;2022-08-01T00:20:09;4.22;;;2.58;;
7529;SDS011;3806;52.270;10.544;2022-08-01T00:22:36;3.13;;;2.72;;
7529;SDS011;3806;52.270;10.544;2022-08-01T00:25:03;5.22;;;2.90;;
7529;SDS011;3806;52.270;10.544;2022-08-01T00:27:29;4.70;;;3.40;;
7529;SDS011;3806;52.270;10.544;2022-08-01T00:29:56;4.20;;;3.33;;
7529;SDS011;3806;52.270;10.544;2022-08-01T00:32:22;4.75;;;2.88;;
7529;SDS011;3806;52.270;10.544;2022-08-01T00:34:47;5.72;;;3.08;;
7529;SDS011;3806;52.270;10.544;2022-08-01T00:37:13;6.78;;;2.83;;
7529;SDS011;3806;52.270;10.544;2022-08-01T00:39:38;6.95;;;3.17;;
7529;SDS011;3806;52.270;10.544;2022-08-01T00:42:08;3.78;;;2.60;;
7529;SDS011;3806;52.270;10.544;2022-08-01T00:44:35;3.42;;;2.60;;
7529;SDS011;3806;52.270;10.544;2022-08-01T00:47:02;4.63;;;2.80;;
7529;SDS011;3806;52.270;10.544;2022-08-01T00:49:28;3.67;;;2.92;;
7529;SDS011;3806;52.270;10.544;2022-08-01T00:51:54;3.90;;;2.72;;
7529;SDS011;3806;52.270;10.544;2022-08-01T00:54:21;5.65;;;2.97;;
7529;SDS011;3806;52.270;10.544;2022-08-01T00:56:48;4.40;;;2.92;;
7529;SDS011;3806;52.270;10.544;2022-08-01T00:59:14;3.72;;;2.70;;
7529;SDS011;3806;52.270;10.544;2022-08-01T01:01:42;5.20;;;3.10;;
7529;SDS011;3806;52.270;10.544;2022-08-01T01:04:08;4.38;;;2.60;;
7529;SDS011;3806;52.270;10.544;2022-08-01T01:09:50;5.75;;;2.47;;
7529;SDS011;3806;52.270;10.544;2022-08-01T01:15:26;3.95;;;2.75;;
7529;SDS011;3806;52.270;10.544;2022-08-01T01:18:17;4.55;;;2.78;;
7529;SDS011;3806;52.270;10.544;2022-08-01T01:20:52;3.95;;;2.78;;
7529;SDS011;3806;52.270;10.544;2022-08-01T01:31:48;5.85;;;2.70;;
7529;SDS011;3806;52.270;10.544;2022-08-01T01:34:17;4.57;;;2.83;;
7529;SDS011;3806;52.270;10.544;2022-08-01T01:36:47;3.58;;;2.55;;
7529;SDS011;3806;52.270;10.544;2022-08-01T01:39:13;5.05;;;3.38;;
7529;SDS011;3806;52.270;10.544;2022-08-01T01:41:40;3.95;;;2.75;;
7529;SDS011;3806;52.270;10.544;2022-08-01T01:44:09;3.65;;;2.55;;
7529;SDS011;3806;52.270;10.544;2022-08-01T01:46:36;6.53;;;3.40;;
7529;SDS011;3806;52.270;10.544;2022-08-01T01:49:02;5.03;;;3.38;;
7529;SDS011;3806;52.270;10.544;2022-08-01T01:51:29;4.57;;;3.10;;
7529;SDS011;3806;52.270;10.544;2022-08-01T01:53:56;6.13;;;3.13;;
7529;SDS011;3806;52.270;10.544;2022-08-01T01:56:23;5.25;;;3.17;;
7529;SDS011;3806;52.270;10.544;2022-08-01T01:58:52;7.50;;;3.55;;
7529;SDS011;3806;52.270;10.544;2022-08-01T02:01:23;6.63;;;3.33;;
7529;SDS011;3806;52.270;10.544;2022-08-01T02:03:53;4.05;;;2.72;;
7529;SDS011;3806;52.270;10.544;2022-08-01T02:06:21;5.13;;;2.78;;
7529;SDS011;3806;52.270;10.544;2022-08-01T02:08:50;4.68;;;3.05;;
7529;SDS011;3806;52.270;10.544;2022-08-01T02:11:19;3.70;;;2.63;;
7529;SDS011;3806;52.270;10.544;2022-08-01T02:13:58;4.22;;;2.95;;
7529;SDS011;3806;52.270;10.544;2022-08-01T02:16:28;4.93;;;2.67;;
7529;SDS011;3806;52.270;10.544;2022-08-01T02:18:56;4.40;;;3.38;;
7529;SDS011;3806;52.270;10.544;2022-08-01T02:21:44;4.60;;;2.90;;
7529;SDS011;3806;52.270;10.544;2022-08-01T02:26:48;4.25;;;2.72;;
7529;SDS011;3806;52.270;10.544;2022-08-01T02:29:50;7.60;;;3.22;;
7529;SDS011;3806;52.270;10.544;2022-08-01T02:32:12;5.53;;;3.00;;
7529;SDS011;3806;52.270;10.544;2022-08-01T02:34:52;5.93;;;3.25;;
7529;SDS011;3806;52.270;10.544;2022-08-01T02:37:20;6.68;;;3.15;;
7529;SDS011;3806;52.270;10.544;2022-08-01T02:39:49;3.88;;;2.97;;
7529;SDS011;3806;52.270;10.544;2022-08-01T02:42:17;3.83;;;2.85;;
7529;SDS011;3806;52.270;10.544;2022-08-01T02:44:43;4.88;;;3.00;;
7529;SDS011;3806;52.270;10.544;2022-08-01T02:47:11;4.82;;;3.42;;
7529;SDS011;3806;52.270;10.544;2022-08-01T02:49:40;4.45;;;3.10;;
7529;SDS011;3806;52.270;10.544;2022-08-01T02:52:09;4.40;;;3.03;;
7529;SDS011;3806;52.270;10.544;2022-08-01T02:54:38;7.68;;;3.50;;
7529;SDS011;3806;52.270;10.544;2022-08-01T02:57:06;3.33;;;2.53;;
7529;SDS011;3806;52.270;10.544;2022-08-01T02:59:33;3.67;;;2.97;;
7529;SDS011;3806;52.270;10.544;2022-08-01T03:02:02;4.30;;;3.10;;
7529;SDS011;3806;52.270;10.544;2022-08-01T03:04:30;5.68;;;3.22;;
7529;SDS011;3806;52.270;10.544;2022-08-01T03:07:02;4.22;;;3.03;;
7529;SDS011;3806;52.270;10.544;2022-08-01T03:09:30;4.82;;;2.97;;
7529;SDS011;3806;52.270;10.544;2022-08-01T03:12:01;5.15;;;2.95;;
7529;SDS011;3806;52.270;10.544;2022-08-01T03:14:29;7.28;;;2.53;;
7529;SDS011;3806;52.270;10.544;2022-08-01T03:16:58;7.47;;;2.83;;
7529;SDS011;3806;52.270;10.544;2022-08-01T03:19:25;5.50;;;3.00;;
7529;SDS011;3806;52.270;10.544;2022-08-01T03:21:52;5.43;;;2.90;;
7529;SDS011;3806;52.270;10.544;2022-08-01T03:24:20;5.13;;;3.08;;
7529;SDS011;3806;52.270;10.544;2022-08-01T03:26:48;3.53;;;2.67;;
7529;SDS011;3806;52.270;10.544;2022-08-01T03:29:17;3.92;;;2.75;;
7529;SDS011;3806;52.270;10.544;2022-08-01T03:31:45;6.47;;;2.40;;
7529;SDS011;3806;52.270;10.544;2022-08-01T03:34:12;3.38;;;2.58;;
7529;SDS011;3806;52.270;10.544;2022-08-01T03:36:55;2.83;;;2.00;;
7529;SDS011;3806;52.270;10.544;2022-08-01T03:39:30;2.33;;;1.80;;
7529;SDS011;3806;52.270;10.544;2022-08-01T03:42:01;3.33;;;2.15;;
7529;SDS011;3806;52.270;10.544;2022-08-01T03:44:37;1.80;;;1.42;;
7529;SDS011;3806;52.270;10.544;2022-08-01T03:47:07;2.58;;;1.80;;
7529;SDS011;3806;52.270;10.544;2022-08-01T03:49:41;2.50;;;1.75;;
7529;SDS011;3806;52.270;10.544;2022-08-01T03:52:09;4.97;;;1.67;;
7529;SDS011;3806;52.270;10.544;2022-08-01T03:54:37;3.08;;;1.60;;
7529;SDS011;3806;52.270;10.544;2022-08-01T03:57:08;2.00;;;1.65;;
7529;SDS011;3806;52.270;10.544;2022-08-01T03:59:35;1.63;;;1.33;;
7529;SDS011;3806;52.270;10.544;2022-08-01T04:02:02;2.35;;;1.73;;
7529;SDS011;3806;52.270;10.544;2022-08-01T04:04:29;2.60;;;1.65;;
7529;SDS011;3806;52.270;10.544;2022-08-01T04:06:55;1.90;;;1.50;;
7529;SDS011;3806;52.270;10.544;2022-08-01T04:09:21;2.50;;;1.77;;
7529;SDS011;3806;52.270;10.544;2022-08-01T04:11:47;2.30;;;1.73;;
7529;SDS011;3806;52.270;10.544;2022-08-01T04:14:13;3.63;;;2.00;;
7529;SDS011;3806;52.270;10.544;2022-08-01T04:16:39;3.00;;;1.75;;
7529;SDS011;3806;52.270;10.544;2022-08-01T04:19:05;3.03;;;1.63;;
7529;SDS011;3806;52.270;10.544;2022-08-01T04:21:32;2.42;;;1.80;;
7529;SDS011;3806;52.270;10.544;2022-08-01T04:24:01;3.53;;;2.13;;
7529;SDS011;3806;52.270;10.544;2022-08-01T04:26:32;3.25;;;1.70;;
7529;SDS011;3806;52.270;10.544;2022-08-01T04:29:00;4.45;;;2.28;;
7529;SDS011;3806;52.270;10.544;2022-08-01T04:31:27;3.03;;;2.03;;
7529;SDS011;3806;52.270;10.544;2022-08-01T04:33:55;3.75;;;2.03;;
7529;SDS011;3806;52.270;10.544;2022-08-01T04:36:22;3.13;;;2.00;;
7529;SDS011;3806;52.270;10.544;2022-08-01T04:38:50;3.42;;;2.17;;
7529;SDS011;3806;52.270;10.544;2022-08-01T04:41:20;3.95;;;2.72;;
7529;SDS011;3806;52.270;10.544;2022-08-01T04:43:47;4.72;;;2.38;;
7529;SDS011;3806;52.270;10.544;2022-08-01T04:46:13;4.18;;;2.67;;
7529;SDS011;3806;52.270;10.544;2022-08-01T04:48:40;5.88;;;2.60;;
7529;SDS011;3806;52.270;10.544;2022-08-01T04:51:15;4.20;;;2.83;;
7529;SDS011;3806;52.270;10.544;2022-08-01T04:53:43;2.83;;;2.08;;
7529;SDS011;3806;52.270;10.544;2022-08-01T04:56:10;3.90;;;2.13;;
7529;SDS011;3806;52.270;10.544;2022-08-01T04:58:38;4.05;;;2.58;;
7529;SDS011;3806;52.270;10.544;2022-08-01T05:01:07;6.53;;;2.47;;
7529;SDS011;3806;52.270;10.544;2022-08-01T05:03:34;3.00;;;2.25;;
7529;SDS011;3806;52.270;10.544;2022-08-01T05:06:00;4.53;;;2.97;;
7529;SDS011;3806;52.270;10.544;2022-08-01T05:08:25;4.75;;;2.50;;
7529;SDS011;3806;52.270;10.544;2022-08-01T05:10:51;4.22;;;2.20;;
7529;SDS011;3806;52.270;10.544;2022-08-01T05:13:17;4.03;;;2.78;;
7529;SDS011;3806;52.270;10.544;2022-08-01T05:15:43;3.63;;;2.60;;
7529;SDS011;3806;52.270;10.544;2022-08-01T05:18:09;4.93;;;2.78;;
7529;SDS011;3806;52.270;10.544;2022-08-01T05:20:35;3.78;;;2.63;;
7529;SDS011;3806;52.270;10.544;2022-08-01T05:23:01;3.65;;;2.53;;
7529;SDS011;3806;52.270;10.544;2022-08-01T05:25:28;3.47;;;2.28;;
7529;SDS011;3806;52.270;10.544;2022-08-01T05:27:53;4.50;;;3.13;;
7529;SDS011;3806;52.270;10.544;2022-08-01T05:30:19;4.53;;;2.63;;
7529;SDS011;3806;52.270;10.544;2022-08-01T05:32:44;5.22;;;2.70;;
7529;SDS011;3806;52.270;10.544;2022-08-01T05:35:10;4.35;;;2.40;;
7529;SDS011;3806;52.270;10.544;2022-08-01T05:37:36;4.35;;;3.10;;
7529;SDS011;3806;52.270;10.544;2022-08-01T05:40:02;6.15;;;3.17;;
7529;SDS011;3806;52.270;10.544;2022-08-01T05:42:28;4.63;;;3.13;;
7529;SDS011;3806;52.270;10.544;2022-08-01T05:44:54;4.35;;;2.92;;
7529;SDS011;3806;52.270;10.544;2022-08-01T05:47:20;5.85;;;4.07;;
7529;SDS011;3806;52.270;10.544;2022-08-01T05:49:46;5.10;;;3.33;;
7529;SDS011;3806;52.270;10.544;2022-08-01T05:52:11;5.28;;;3.50;;
7529;SDS011;3806;52.270;10.544;2022-08-01T05:54:38;5.97;;;3.50;;
7529;SDS011;3806;52.270;10.544;2022-08-01T05:57:03;6.80;;;4.18;;
7529;SDS011;3806;52.270;10.544;2022-08-01T05:59:29;6.68;;;4.45;;
7529;SDS011;3806;52.270;10.544;2022-08-01T06:01:55;7.15;;;5.00;;
7529;SDS011;3806;52.270;10.544;2022-08-01T06:04:22;7.25;;;4.78;;
7529;SDS011;3806;52.270;10.544;2022-08-01T06:06:47;6.22;;;4.68;;
7529;SDS011;3806;52.270;10.544;2022-08-01T06:09:13;7.25;;;5.20;;
7529;SDS011;3806;52.270;10.544;2022-08-01T06:11:39;11.35;;;5.30;;
7529;SDS011;3806;52.270;10.544;2022-08-01T06:14:05;7.45;;;4.65;;
7529;SDS011;3806;52.270;10.544;2022-08-01T06:16:31;6.10;;;4.13;;
7529;SDS011;3806;52.270;10.544;2022-08-01T06:18:56;5.80;;;3.97;;
7529;SDS011;3806;52.270;10.544;2022-08-01T06:21:22;6.80;;;3.88;;
7529;SDS011;3806;52.270;10.544;2022-08-01T06:23:47;6.43;;;4.38;;
7529;SDS011;3806;52.270;10.544;2022-08-01T06:26:13;7.47;;;3.88;;
7529;SDS011;3806;52.270;10.544;2022-08-01T06:28:42;6.45;;;3.50;;
7529;SDS011;3806;52.270;10.544;2022-08-01T06:31:07;6.00;;;3.75;;
7529;SDS011;3806;52.270;10.544;2022-08-01T06:33:34;7.88;;;4.10;;
7529;SDS011;3806;52.270;10.544;2022-08-01T06:36:00;4.60;;;3.03;;
7529;SDS011;3806;52.270;10.544;2022-08-01T06:38:25;4.78;;;2.80;;
7529;SDS011;3806;52.270;10.544;2022-08-01T06:40:51;4.85;;;2.63;;
7529;SDS011;3806;52.270;10.544;2022-08-01T06:43:17;4.35;;;2.80;;
7529;SDS011;3806;52.270;10.544;2022-08-01T06:45:43;4.78;;;2.92;;
7529;SDS011;3806;52.270;10.544;2022-08-01T06:48:09;3.70;;;2.47;;
7529;SDS011;3806;52.270;10.544;2022-08-01T06:50:35;4.35;;;2.75;;
7529;SDS011;3806;52.270;10.544;2022-08-01T06:53:01;5.78;;;2.20;;
7529;SDS011;3806;52.270;10.544;2022-08-01T06:55:27;3.40;;;2.20;;
7529;SDS011;3806;52.270;10.544;2022-08-01T06:57:52;3.47;;;2.00;;
7529;SDS011;3806;52.270;10.544;2022-08-01T07:00:19;6.53;;;2.20;;
7529;SDS011;3806;52.270;10.544;2022-08-01T07:02:48;4.93;;;1.88;;
7529;SDS011;3806;52.270;10.544;2022-08-01T07:05:14;5.90;;;2.03;;
7529;SDS011;3806;52.270;10.544;2022-08-01T07:07:40;3.10;;;1.95;;
7529;SDS011;3806;52.270;10.544;2022-08-01T07:10:06;3.72;;;2.05;;
7529;SDS011;3806;52.270;10.544;2022-08-01T07:12:33;3.80;;;1.75;;
7529;SDS011;3806;52.270;10.544;2022-08-01T07:15:02;2.42;;;1.58;;
7529;SDS011;3806;52.270;10.544;2022-08-01T07:17:28;2.88;;;1.90;;
7529;SDS011;3806;52.270;10.544;2022-08-01T07:19:54;4.15;;;1.88;;
7529;SDS011;3806;52.270;10.544;2022-08-01T07:22:20;2.42;;;1.50;;
7529;SDS011;3806;52.270;10.544;2022-08-01T07:24:45;2.72;;;1.60;;
7529;SDS011;3806;52.270;10.544;2022-08-01T07:27:11;1.80;;;1.35;;
7529;SDS011;3806;52.270;10.544;2022-08-01T07:29:37;4.80;;;1.65;;
7529;SDS011;3806;52.270;10.544;2022-08-01T07:32:03;1.73;;;1.30;;
7529;SDS011;3806;52.270;10.544;2022-08-01T07:34:29;1.90;;;1.17;;
7529;SDS011;3806;52.270;10.544;2022-08-01T07:36:54;3.13;;;1.45;;
7529;SDS011;3806;52.270;10.544;2022-08-01T07:39:20;2.90;;;1.67;;
7529;SDS011;3806;52.270;10.544;2022-08-01T07:41:46;1.77;;;1.30;;
7529;SDS011;3806;52.270;10.544;2022-08-01T07:44:12;1.77;;;1.30;;
7529;SDS011;3806;52.270;10.544;2022-08-01T07:46:37;3.25;;;1.40;;
7529;SDS011;3806;52.270;10.544;2022-08-01T07:49:03;1.88;;;1.15;;
7529;SDS011;3806;52.270;10.544;2022-08-01T07:51:28;1.30;;;1.10;;
7529;SDS011;3806;52.270;10.544;2022-08-01T07:53:54;1.42;;;1.00;;
7529;SDS011;3806;52.270;10.544;2022-08-01T07:56:20;1.67;;;1.13;;
7529;SDS011;3806;52.270;10.544;2022-08-01T07:58:48;1.35;;;1.17;;
7529;SDS011;3806;52.270;10.544;2022-08-01T08:01:14;1.90;;;1.42;;
7529;SDS011;3806;52.270;10.544;2022-08-01T08:03:40;2.83;;;1.30;;
7529;SDS011;3806;52.270;10.544;2022-08-01T08:06:08;2.80;;;1.25;;
7529;SDS011;3806;52.270;10.544;2022-08-01T08:08:34;2.17;;;1.50;;
7529;SDS011;3806;52.270;10.544;2022-08-01T08:11:00;2.33;;;1.35;;
7529;SDS011;3806;52.270;10.544;2022-08-01T08:13:26;1.70;;;1.10;;
7529;SDS011;3806;52.270;10.544;2022-08-01T08:15:52;1.95;;;1.20;;
7529;SDS011;3806;52.270;10.544;2022-08-01T08:18:18;1.52;;;1.02;;
7529;SDS011;3806;52.270;10.544;2022-08-01T08:20:43;1.58;;;1.10;;
7529;SDS011;3806;52.270;10.544;2022-08-01T08:23:10;1.23;;;1.00;;
7529;SDS011;3806;52.270;10.544;2022-08-01T08:25:54;3.45;;;1.42;;
7529;SDS011;3806;52.270;10.544;2022-08-01T08:28:20;3.17;;;1.20;;
7529;SDS011;3806;52.270;10.544;2022-08-01T08:30:45;3.83;;;1.52;;
7529;SDS011;3806;52.270;10.544;2022-08-01T08:33:11;2.55;;;0.98;;
7529;SDS011;3806;52.270;10.544;2022-08-01T08:35:38;1.30;;;0.80;;
7529;SDS011;3806;52.270;10.544;2022-08-01T08:38:06;2.22;;;1.00;;
7529;SDS011;3806;52.270;10.544;2022-08-01T08:40:32;4.95;;;1.00;;
7529;SDS011;3806;52.270;10.544;2022-08-01T08:43:00;1.15;;;0.85;;
7529;SDS011;3806;52.270;10.544;2022-08-01T08:45:26;1.75;;;0.90;;
7529;SDS011;3806;52.270;10.544;2022-08-01T08:47:53;2.38;;;0.80;;
7529;SDS011;3806;52.270;10.544;2022-08-01T08:50:21;1.95;;;1.15;;
7529;SDS011;3806;52.270;10.544;2022-08-01T08:52:48;1.73;;;0.57;;
7529;SDS011;3806;52.270;10.544;2022-08-01T08:55:15;2.30;;;0.90;;
7529;SDS011;3806;52.270;10.544;2022-08-01T08:57:43;0.73;;;0.73;;
7529;SDS011;3806;52.270;10.544;2022-08-01T09:00:09;0.90;;;0.70;;
7529;SDS011;3806;52.270;10.544;2022-08-01T09:02:39;1.48;;;1.00;;
7529;SDS011;3806;52.270;10.544;2022-08-01T09:05:07;3.15;;;1.00;;
7529;SDS011;3806;52.270;10.544;2022-08-01T09:07:33;1.17;;;0.88;;
7529;SDS011;3806;52.270;10.544;2022-08-01T09:09:59;1.98;;;1.00;;
7529;SDS011;3806;52.270;10.544;2022-08-01T09:12:24;1.00;;;0.90;;
7529;SDS011;3806;52.270;10.544;2022-08-01T09:14:50;2.22;;;1.10;;
7529;SDS011;3806;52.270;10.544;2022-08-01T09:17:18;1.92;;;1.00;;
7529;SDS011;3806;52.270;10.544;2022-08-01T09:19:54;1.92;;;1.20;;
7529;SDS011;3806;52.270;10.544;2022-08-01T09:22:22;2.05;;;1.50;;
7529;SDS011;3806;52.270;10.544;2022-08-01T09:27:23;2.95;;;1.17;;
7529;SDS011;3806;52.270;10.544;2022-08-01T09:29:50;2.22;;;1.80;;
7529;SDS011;3806;52.270;10.544;2022-08-01T09:32:17;1.40;;;1.00;;
7529;SDS011;3806;52.270;10.544;2022-08-01T09:34:44;2.03;;;1.20;;
7529;SDS011;3806;52.270;10.544;2022-08-01T09:37:11;2.33;;;1.73;;
7529;SDS011;3806;52.270;10.544;2022-08-01T09:39:44;1.90;;;1.20;;
7529;SDS011;3806;52.270;10.544;2022-08-01T09:42:23;1.20;;;1.08;;
7529;SDS011;3806;52.270;10.544;2022-08-01T09:44:51;1.42;;;1.20;;
7529;SDS011;3806;52.270;10.544;2022-08-01T09:47:17;1.63;;;1.13;;
7529;SDS011;3806;52.270;10.544;2022-08-01T09:49:45;1.90;;;1.02;;
7529;SDS011;3806;52.270;10.544;2022-08-01T09:52:23;2.08;;;0.93;;
7529;SDS011;3806;52.270;10.544;2022-08-01T09:55:00;0.43;;;0.40;;
7529;SDS011;3806;52.270;10.544;2022-08-01T09:57:31;0.70;;;0.70;;
7529;SDS011;3806;52.270;10.544;2022-08-01T10:00:03;0.73;;;0.50;;
7529;SDS011;3806;52.270;10.544;2022-08-01T10:02:31;0.93;;;0.80;;
7529;SDS011;3806;52.270;10.544;2022-08-01T10:04:58;3.80;;;0.70;;
7529;SDS011;3806;52.270;10.544;2022-08-01T10:07:25;2.55;;;0.75;;
7529;SDS011;3806;52.270;10.544;2022-08-01T10:09:51;3.20;;;0.70;;
7529;SDS011;3806;52.270;10.544;2022-08-01T10:12:18;1.05;;;0.90;;
7529;SDS011;3806;52.270;10.544;2022-08-01T10:14:45;2.05;;;0.80;;
7529;SDS011;3806;52.270;10.544;2022-08-01T10:17:13;1.52;;;0.70;;
7529;SDS011;3806;52.270;10.544;2022-08-01T10:19:40;1.52;;;0.88;;
7529;SDS011;3806;52.270;10.544;2022-08-01T10:22:08;1.88;;;0.82;;
7529;SDS011;3806;52.270;10.544;2022-08-01T10:24:37;1.63;;;1.00;;
7529;SDS011;3806;52.270;10.544;2022-08-01T10:27:05;2.45;;;0.98;;
7529;SDS011;3806;52.270;10.544;2022-08-01T10:29:34;1.00;;;0.63;;
7529;SDS011;3806;52.270;10.544;2022-08-01T10:32:10;1.50;;;0.88;;
7529;SDS011;3806;52.270;10.544;2022-08-01T10:34:36;1.25;;;0.88;;
7529;SDS011;3806;52.270;10.544;2022-08-01T10:37:03;0.93;;;0.80;;
7529;SDS011;3806;52.270;10.544;2022-08-01T10:39:30;0.93;;;0.80;;
7529;SDS011;3806;52.270;10.544;2022-08-01T10:41:57;0.75;;;0.70;;
7529;SDS011;3806;52.270;10.544;2022-08-01T10:44:27;2.03;;;1.20;;
7529;SDS011;3806;52.270;10.544;2022-08-01T10:47:02;1.55;;;0.90;;
7529;SDS011;3806;52.270;10.544;2022-08-01T10:49:34;0.82;;;0.73;;
7529;SDS011;3806;52.270;10.544;2022-08-01T10:52:04;1.83;;;1.00;;
7529;SDS011;3806;52.270;10.544;2022-08-01T10:54:30;0.77;;;0.77;;
7529;SDS011;3806;52.270;10.544;2022-08-01T10:57:04;1.58;;;1.20;;
7529;SDS011;3806;52.270;10.544;2022-08-01T10:59:31;1.40;;;1.15;;
7529;SDS011;3806;52.270;10.544;2022-08-01T11:01:59;1.58;;;1.17;;
7529;SDS011;3806;52.270;10.544;2022-08-01T11:04:32;2.10;;;1.10;;
7529;SDS011;3806;52.270;10.544;2022-08-01T11:07:16;0.95;;;0.90;;
7529;SDS011;3806;52.270;10.544;2022-08-01T11:09:47;1.75;;;1.20;;
7529;SDS011;3806;52.270;10.544;2022-08-01T11:12:37;0.80;;;0.80;;
7529;SDS011;3806;52.270;10.544;2022-08-01T11:15:15;1.08;;;0.98;;
7529;SDS011;3806;52.270;10.544;2022-08-01T11:17:49;2.40;;;1.05;;
7529;SDS011;3806;52.270;10.544;2022-08-01T11:25:26;4.03;;;1.33;;
7529;SDS011;3806;52.270;10.544;2022-08-01T11:30:46;1.00;;;0.82;;
7529;SDS011;3806;52.270;10.544;2022-08-01T11:33:15;1.17;;;1.00;;
7529;SDS011;3806;52.270;10.544;2022-08-01T11:36:16;1.77;;;1.10;;
7529;SDS011;3806;52.270;10.544;2022-08-01T11:38:37;2.25;;;1.10;;
7529;SDS011;3806;52.270;10.544;2022-08-01T11:41:21;1.20;;;0.77;;
7529;SDS011;3806;52.270;10.544;2022-08-01T11:44:07;3.38;;;0.85;;
7529;SDS011;3806;52.270;10.544;2022-08-01T11:49:23;2.50;;;0.90;;
7529;SDS011;3806;52.270;10.544;2022-08-01T11:52:02;1.83;;;0.80;;
7529;SDS011;3806;52.270;10.544;2022-08-01T11:54:29;1.38;;;0.90;;
7529;SDS011;3806;52.270;10.544;2022-08-01T11:57:23;0.90;;;0.70;;
7529;SDS011;3806;52.270;10.544;2022-08-01T11:59:52;0.70;;;0.68;;
7529;SDS011;3806;52.270;10.544;2022-08-01T12:02:24;1.85;;;0.88;;
7529;SDS011;3806;52.270;10.544;2022-08-01T12:04:54;2.92;;;1.30;;
7529;SDS011;3806;52.270;10.544;2022-08-01T12:07:22;2.92;;;0.90;;
7529;SDS011;3806;52.270;10.544;2022-08-01T12:09:48;3.08;;;0.93;;
7529;SDS011;3806;52.270;10.544;2022-08-01T12:12:22;2.03;;;1.02;;
7529;SDS011;3806;52.270;10.544;2022-08-01T12:14:52;2.30;;;0.77;;
7529;SDS011;3806;52.270;10.544;2022-08-01T12:17:20;1.13;;;0.60;;
7529;SDS011;3806;52.270;10.544;2022-08-01T12:20:07;0.70;;;0.70;;
7529;SDS011;3806;52.270;10.544;2022-08-01T12:22:35;1.63;;;0.82;;
7529;SDS011;3806;52.270;10.544;2022-08-01T12:25:08;1.00;;;0.70;;
7529;SDS011;3806;52.270;10.544;2022-08-01T12:27:37;1.55;;;0.95;;
7529;SDS011;3806;52.270;10.544;2022-08-01T12:30:04;1.63;;;0.88;;
7529;SDS011;3806;52.270;10.544;2022-08-01T12:32:36;1.10;;;0.90;;
7529;SDS011;3806;52.270;10.544;2022-08-01T12:35:05;2.35;;;0.93;;
7529;SDS011;3806;52.270;10.544;2022-08-01T12:37:42;1.00;;;0.77;;
7529;SDS011;3806;52.270;10.544;2022-08-01T12:40:10;2.75;;;0.98;;
7529;SDS011;3806;52.270;10.544;2022-08-01T12:42:37;3.20;;;0.90;;
7529;SDS011;3806;52.270;10.544;2022-08-01T12:45:04;1.55;;;0.98;;
7529;SDS011;3806;52.270;10.544;2022-08-01T12:47:32;3.05;;;1.00;;
7529;SDS011;3806;52.270;10.544;2022-08-01T12:50:00;5.75;;;1.00;;
7529;SDS011;3806;52.270;10.544;2022-08-01T12:52:26;2.63;;;1.15;;
7529;SDS011;3806;52.270;10.544;2022-08-01T12:55:13;0.50;;;0.50;;
7529;SDS011;3806;52.270;10.544;2022-08-01T12:57:40;3.53;;;1.10;;
7529;SDS011;3806;52.270;10.544;2022-08-01T13:00:16;2.92;;;1.13;;
7529;SDS011;3806;52.270;10.544;2022-08-01T13:02:45;2.80;;;0.90;;
7529;SDS011;3806;52.270;10.544;2022-08-01T13:05:11;4.78;;;1.25;;
7529;SDS011;3806;52.270;10.544;2022-08-01T13:07:42;4.18;;;0.90;;
7529;SDS011;3806;52.270;10.544;2022-08-01T13:10:13;4.28;;;1.10;;
7529;SDS011;3806;52.270;10.544;2022-08-01T13:12:40;1.85;;;0.80;;
7529;SDS011;3806;52.270;10.544;2022-08-01T13:17:45;2.35;;;0.90;;
7529;SDS011;3806;52.270;10.544;2022-08-01T13:20:20;1.75;;;1.23;;
7529;SDS011;3806;52.270;10.544;2022-08-01T13:23:10;4.45;;;1.02;;
7529;SDS011;3806;52.270;10.544;2022-08-01T13:25:46;3.83;;;1.10;;
7529;SDS011;3806;52.270;10.544;2022-08-01T13:28:17;1.52;;;0.70;;
7529;SDS011;3806;52.270;10.544;2022-08-01T13:30:51;3.38;;;0.98;;
7529;SDS011;3806;52.270;10.544;2022-08-01T13:33:22;2.72;;;1.30;;
7529;SDS011;3806;52.270;10.544;2022-08-01T13:35:55;3.80;;;1.35;;
7529;SDS011;3806;52.270;10.544;2022-08-01T13:38:22;1.85;;;0.88;;
7529;SDS011;3806;52.270;10.544;2022-08-01T13:41:07;2.25;;;1.40;;
7529;SDS011;3806;52.270;10.544;2022-08-01T13:43:33;8.43;;;2.17;;
7529;SDS011;3806;52.270;10.544;2022-08-01T13:46:00;54.80;;;44.13;;
7529;SDS011;3806;52.270;10.544;2022-08-01T13:48:30;55.47;;;36.67;;
7529;SDS011;3806;52.270;10.544;2022-08-01T13:50:56;38.78;;;25.05;;
7529;SDS011;3806;52.270;10.544;2022-08-01T13:53:22;24.45;;;16.20;;
7529;SDS011;3806;52.270;10.544;2022-08-01T13:55:47;11.98;;;7.65;;
7529;SDS011;3806;52.270;10.544;2022-08-01T13:58:13;9.32;;;5.65;;
7529;SDS011;3806;52.270;10.544;2022-08-01T14:00:38;9.77;;;6.53;;
7529;SDS011;3806;52.270;10.544;2022-08-01T14:03:04;7.82;;;3.85;;
7529;SDS011;3806;52.270;10.544;2022-08-01T14:05:30;4.60;;;1.90;;
7529;SDS011;3806;52.270;10.544;2022-08-01T14:07:56;7.03;;;4.18;;
7529;SDS011;3806;52.270;10.544;2022-08-01T14:10:22;6.10;;;3.05;;
7529;SDS011;3806;52.270;10.544;2022-08-01T14:12:48;7.60;;;4.18;;
7529;SDS011;3806;52.270;10.544;2022-08-01T14:15:14;7.35;;;2.90;;
7529;SDS011;3806;52.270;10.544;2022-08-01T14:17:41;6.43;;;3.28;;
7529;SDS011;3806;52.270;10.544;2022-08-01T14:20:07;5.40;;;1.63;;
7529;SDS011;3806;52.270;10.544;2022-08-01T14:22:33;7.85;;;4.03;;
7529;SDS011;3806;52.270;10.544;2022-08-01T14:24:58;6.28;;;3.50;;
7529;SDS011;3806;52.270;10.544;2022-08-01T14:27:24;6.40;;;3.65;;
7529;SDS011;3806;52.270;10.544;2022-08-01T14:29:50;3.97;;;2.33;;
7529;SDS011;3806;52.270;10.544;2022-08-01T14:32:15;2.15;;;1.33;;
7529;SDS011;3806;52.270;10.544;2022-08-01T14:34:41;4.10;;;1.80;;
7529;SDS011;3806;52.270;10.544;2022-08-01T14:37:06;2.67;;;1.38;;
7529;SDS011;3806;52.270;10.544;2022-08-01T14:39:32;2.85;;;1.55;;
7529;SDS011;3806;52.270;10.544;2022-08-01T14:41:57;3.60;;;1.77;;
7529;SDS011;3806;52.270;10.544;2022-08-01T14:44:23;2.35;;;1.40;;
7529;SDS011;3806;52.270;10.544;2022-08-01T14:46:49;2.88;;;1.05;;
7529;SDS011;3806;52.270;10.544;2022-08-01T14:49:14;3.83;;;1.60;;
7529;SDS011;3806;52.270;10.544;2022-08-01T14:51:40;4.32;;;1.35;;
7529;SDS011;3806;52.270;10.544;2022-08-01T14:54:06;2.70;;;1.20;;
7529;SDS011;3806;52.270;10.544;2022-08-01T14:56:31;2.60;;;1.83;;
7529;SDS011;3806;52.270;10.544;2022-08-01T14:58:57;1.73;;;1.10;;
7529;SDS011;3806;52.270;10.544;2022-08-01T15:01:24;4.43;;;1.23;;
7529;SDS011;3806;52.270;10.544;2022-08-01T15:03:49;3.00;;;1.73;;
7529;SDS011;3806;52.270;10.544;2022-08-01T15:06:16;2.83;;;1.13;;
7529;SDS011;3806;52.270;10.544;2022-08-01T15:08:42;1.77;;;1.63;;
7529;SDS011;3806;52.270;10.544;2022-08-01T15:11:08;4.18;;;1.30;;
7529;SDS011;3806;52.270;10.544;2022-08-01T15:13:34;1.38;;;1.08;;
7529;SDS011;3806;52.270;10.544;2022-08-01T15:15:59;2.75;;;1.30;;
7529;SDS011;3806;52.270;10.544;2022-08-01T15:18:25;2.22;;;1.35;;
7529;SDS011;3806;52.270;10.544;2022-08-01T15:20:52;2.92;;;1.40;;
7529;SDS011;3806;52.270;10.544;2022-08-01T15:23:18;2.15;;;1.13;;
7529;SDS011;3806;52.270;10.544;2022-08-01T15:25:43;1.40;;;1.10;;
7529;SDS011;3806;52.270;10.544;2022-08-01T15:28:09;1.52;;;1.20;;
7529;SDS011;3806;52.270;10.544;2022-08-01T15:30:35;2.83;;;1.30;;
7529;SDS011;3806;52.270;10.544;2022-08-01T15:33:01;3.13;;;1.23;;
7529;SDS011;3806;52.270;10.544;2022-08-01T15:35:26;4.20;;;1.30;;
7529;SDS011;3806;52.270;10.544;2022-08-01T15:37:52;3.05;;;1.55;;
7529;SDS011;3806;52.270;10.544;2022-08-01T15:40:17;2.58;;;1.30;;